sensor_id;sensor_type;location;lat;lon;timestamp;pressure;altitude;pressure_sealevel;temperature;humidity
40992;BME280;29633;49.168;9.848;2023-04-26T00:01:13;96847.38;;;11.08;64.33
40992;BME280;29633;49.168;9.848;2023-04-26T00:03:39;96844.22;;;11.05;64.37
40992;BME280;29633;49.168;9.848;2023-04-26T00:06:05;96852.50;;;10.99;64.64
40992;BME280;29633;49.168;9.848;2023-04-26T00:08:33;96841.56;;;10.95;64.38
40992;BME280;29633;49.168;9.848;2023-04-26T00:10:59;96843.44;;;10.93;64.46
40992;BME280;29633;49.168;9.848;2023-04-26T00:13:24;96841.22;;;10.89;64.50
40992;BME280;29633;49.168;9.848;2023-04-26T00:15:52;96848.53;;;10.83;64.53
40992;BME280;29633;49.168;9.848;2023-04-26T00:18:18;96849.63;;;10.81;64.50
40992;BME280;29633;49.168;9.848;2023-04-26T00:20:44;96848.22;;;10.77;64.33
40992;BME280;29633;49.168;9.848;2023-04-26T00:23:09;96840.69;;;10.74;64.53
40992;BME280;29633;49.168;9.848;2023-04-26T00:25:36;96842.91;;;10.67;64.26
40992;BME280;29633;49.168;9.848;2023-04-26T00:28:02;96850.13;;;10.64;64.66
40992;BME280;29633;49.168;9.848;2023-04-26T00:30:27;96847.19;;;10.57;64.51
40992;BME280;29633;49.168;9.848;2023-04-26T00:32:53;96850.13;;;10.53;64.39
40992;BME280;29633;49.168;9.848;2023-04-26T00:35:19;96847.22;;;10.46;64.59
40992;BME280;29633;49.168;9.848;2023-04-26T00:37:44;96853.56;;;10.42;64.42
40992;BME280;29633;49.168;9.848;2023-04-26T00:40:11;96849.22;;;10.43;64.39
40992;BME280;29633;49.168;9.848;2023-04-26T00:42:38;96848.28;;;10.44;64.30
40992;BME280;29633;49.168;9.848;2023-04-26T00:45:07;96850.28;;;10.40;64.56
40992;BME280;29633;49.168;9.848;2023-04-26T00:47:33;96853.81;;;10.39;64.41
40992;BME280;29633;49.168;9.848;2023-04-26T00:50:00;96853.00;;;10.38;64.42
40992;BME280;29633;49.168;9.848;2023-04-26T00:52:26;96859.25;;;10.36;64.52
40992;BME280;29633;49.168;9.848;2023-04-26T00:54:55;96857.72;;;10.33;64.56
40992;BME280;29633;49.168;9.848;2023-04-26T00:57:21;96855.47;;;10.29;64.26
40992;BME280;29633;49.168;9.848;2023-04-26T00:59:47;96853.00;;;10.27;64.38
40992;BME280;29633;49.168;9.848;2023-04-26T01:02:13;96855.59;;;10.27;64.51
40992;BME280;29633;49.168;9.848;2023-04-26T01:04:38;96856.19;;;10.31;64.39
40992;BME280;29633;49.168;9.848;2023-04-26T01:07:06;96849.22;;;10.31;64.44
40992;BME280;29633;49.168;9.848;2023-04-26T01:09:32;96854.31;;;10.33;64.33
40992;BME280;29633;49.168;9.848;2023-04-26T01:12:01;96853.47;;;10.32;64.31
40992;BME280;29633;49.168;9.848;2023-04-26T01:14:27;96856.91;;;10.33;64.31
40992;BME280;29633;49.168;9.848;2023-04-26T01:16:53;96843.94;;;10.33;64.44
40992;BME280;29633;49.168;9.848;2023-04-26T01:19:19;96853.38;;;10.34;64.50
40992;BME280;29633;49.168;9.848;2023-04-26T01:21:45;96856.53;;;10.38;64.37
40992;BME280;29633;49.168;9.848;2023-04-26T01:24:12;96854.78;;;10.38;64.64
40992;BME280;29633;49.168;9.848;2023-04-26T01:26:38;96846.03;;;10.39;64.42
40992;BME280;29633;49.168;9.848;2023-04-26T01:29:16;96857.38;;;10.38;64.44
40992;BME280;29633;49.168;9.848;2023-04-26T01:31:42;96859.25;;;10.36;64.40
40992;BME280;29633;49.168;9.848;2023-04-26T01:34:08;96860.19;;;10.35;64.53
40992;BME280;29633;49.168;9.848;2023-04-26T01:36:33;96856.19;;;10.31;64.57
40992;BME280;29633;49.168;9.848;2023-04-26T01:38:59;96863.00;;;10.32;64.54
40992;BME280;29633;49.168;9.848;2023-04-26T01:41:25;96858.91;;;10.29;64.37
40992;BME280;29633;49.168;9.848;2023-04-26T01:43:51;96852.91;;;10.29;64.58
40992;BME280;29633;49.168;9.848;2023-04-26T01:46:16;96861.50;;;10.29;64.70
40992;BME280;29633;49.168;9.848;2023-04-26T01:48:42;96863.38;;;10.27;64.54
40992;BME280;29633;49.168;9.848;2023-04-26T01:51:07;96860.78;;;10.27;64.61
40992;BME280;29633;49.168;9.848;2023-04-26T01:53:33;96863.38;;;10.27;64.47
40992;BME280;29633;49.168;9.848;2023-04-26T01:56:00;96866.09;;;10.26;64.60
40992;BME280;29633;49.168;9.848;2023-04-26T01:58:27;96862.66;;;10.25;64.51
40992;BME280;29633;49.168;9.848;2023-04-26T02:00:55;96863.50;;;10.26;64.77
40992;BME280;29633;49.168;9.848;2023-04-26T02:03:21;96859.97;;;10.27;64.58
40992;BME280;29633;49.168;9.848;2023-04-26T02:05:47;96865.84;;;10.29;64.52
40992;BME280;29633;49.168;9.848;2023-04-26T02:08:13;96863.75;;;10.23;64.49
40992;BME280;29633;49.168;9.848;2023-04-26T02:10:38;96863.03;;;10.21;64.57
40992;BME280;29633;49.168;9.848;2023-04-26T02:13:07;96860.66;;;10.18;64.55
40992;BME280;29633;49.168;9.848;2023-04-26T02:15:32;96856.44;;;10.17;64.80
40992;BME280;29633;49.168;9.848;2023-04-26T02:17:58;96860.19;;;10.13;64.57
40992;BME280;29633;49.168;9.848;2023-04-26T02:20:24;96862.06;;;10.11;64.72
40992;BME280;29633;49.168;9.848;2023-04-26T02:22:50;96854.53;;;10.08;64.55
40992;BME280;29633;49.168;9.848;2023-04-26T02:25:15;96862.16;;;10.09;64.59
40992;BME280;29633;49.168;9.848;2023-04-26T02:27:41;96858.78;;;10.09;64.51
40992;BME280;29633;49.168;9.848;2023-04-26T02:30:07;96864.16;;;10.06;64.50
40992;BME280;29633;49.168;9.848;2023-04-26T02:32:33;96861.13;;;10.01;64.60
40992;BME280;29633;49.168;9.848;2023-04-26T02:34:58;96856.19;;;9.98;64.40
40992;BME280;29633;49.168;9.848;2023-04-26T02:37:25;96860.53;;;9.97;64.60
40992;BME280;29633;49.168;9.848;2023-04-26T02:39:51;96860.63;;;9.96;64.35
40992;BME280;29633;49.168;9.848;2023-04-26T02:42:17;96864.19;;;9.95;64.64
40992;BME280;29633;49.168;9.848;2023-04-26T02:44:43;96864.41;;;9.92;64.49
40992;BME280;29633;49.168;9.848;2023-04-26T02:47:09;96878.31;;;9.91;64.61
40992;BME280;29633;49.168;9.848;2023-04-26T02:49:35;96864.88;;;9.85;64.49
40992;BME280;29633;49.168;9.848;2023-04-26T02:52:00;96865.81;;;9.84;64.59
40992;BME280;29633;49.168;9.848;2023-04-26T02:54:26;96852.28;;;9.81;64.56
40992;BME280;29633;49.168;9.848;2023-04-26T02:56:51;96848.16;;;9.78;64.78
40992;BME280;29633;49.168;9.848;2023-04-26T02:59:17;96853.09;;;9.81;64.60
40992;BME280;29633;49.168;9.848;2023-04-26T03:01:43;96846.06;;;9.83;64.57
40992;BME280;29633;49.168;9.848;2023-04-26T03:04:08;96859.09;;;9.82;64.54
40992;BME280;29633;49.168;9.848;2023-04-26T03:06:34;96860.16;;;9.79;64.65
40992;BME280;29633;49.168;9.848;2023-04-26T03:09:00;96854.03;;;9.80;64.58
40992;BME280;29633;49.168;9.848;2023-04-26T03:11:25;96868.63;;;9.81;64.57
40992;BME280;29633;49.168;9.848;2023-04-26T03:13:51;96863.00;;;9.76;64.70
40992;BME280;29633;49.168;9.848;2023-04-26T03:16:21;96863.69;;;9.78;64.44
40992;BME280;29633;49.168;9.848;2023-04-26T03:18:47;96864.75;;;9.76;64.68
40992;BME280;29633;49.168;9.848;2023-04-26T03:21:13;96864.75;;;9.76;64.57
40992;BME280;29633;49.168;9.848;2023-04-26T03:23:39;96872.38;;;9.77;64.64
40992;BME280;29633;49.168;9.848;2023-04-26T03:26:04;96871.69;;;9.75;64.54
40992;BME280;29633;49.168;9.848;2023-04-26T03:28:30;96866.75;;;9.72;64.52
40992;BME280;29633;49.168;9.848;2023-04-26T03:30:55;96874.75;;;9.69;64.74
40992;BME280;29633;49.168;9.848;2023-04-26T03:33:21;96875.69;;;9.68;64.69
40992;BME280;29633;49.168;9.848;2023-04-26T03:35:47;96874.03;;;9.67;64.55
40992;BME280;29633;49.168;9.848;2023-04-26T03:38:12;96872.59;;;9.63;64.86
40992;BME280;29633;49.168;9.848;2023-04-26T03:40:38;96874.50;;;9.61;64.55
40992;BME280;29633;49.168;9.848;2023-04-26T03:43:04;96875.53;;;9.59;64.61
40992;BME280;29633;49.168;9.848;2023-04-26T03:45:29;96882.59;;;9.57;64.53
40992;BME280;29633;49.168;9.848;2023-04-26T03:47:55;96876.72;;;9.55;64.67
40992;BME280;29633;49.168;9.848;2023-04-26T03:50:21;96880.25;;;9.54;64.74
40992;BME280;29633;49.168;9.848;2023-04-26T03:52:46;96884.69;;;9.52;64.64
40992;BME280;29633;49.168;9.848;2023-04-26T03:55:12;96882.34;;;9.49;64.77
40992;BME280;29633;49.168;9.848;2023-04-26T03:57:38;96880.69;;;9.48;64.76
40992;BME280;29633;49.168;9.848;2023-04-26T04:00:04;96884.44;;;9.44;64.83
40992;BME280;29633;49.168;9.848;2023-04-26T04:02:36;96881.97;;;9.42;64.82
40992;BME280;29633;49.168;9.848;2023-04-26T04:05:02;96887.97;;;9.43;64.62
40992;BME280;29633;49.168;9.848;2023-04-26T04:07:28;96891.25;;;9.45;64.98
40992;BME280;29633;49.168;9.848;2023-04-26T04:09:53;96886.06;;;9.45;64.53
40992;BME280;29633;49.168;9.848;2023-04-26T04:12:19;96878.31;;;9.45;64.72
40992;BME280;29633;49.168;9.848;2023-04-26T04:14:46;96883.41;;;9.46;64.51
40992;BME280;29633;49.168;9.848;2023-04-26T04:17:12;96886.69;;;9.48;64.46
40992;BME280;29633;49.168;9.848;2023-04-26T04:19:37;96877.28;;;9.47;64.55
40992;BME280;29633;49.168;9.848;2023-04-26T04:22:03;96883.41;;;9.46;64.59
40992;BME280;29633;49.168;9.848;2023-04-26T04:24:29;96886.22;;;9.43;64.54
40992;BME280;29633;49.168;9.848;2023-04-26T04:26:55;96887.13;;;9.42;64.63
40992;BME280;29633;49.168;9.848;2023-04-26T04:29:20;96879.38;;;9.42;64.67
40992;BME280;29633;49.168;9.848;2023-04-26T04:31:46;96885.47;;;9.41;64.59
40992;BME280;29633;49.168;9.848;2023-04-26T04:34:11;96887.13;;;9.42;64.38
40992;BME280;29633;49.168;9.848;2023-04-26T04:36:37;96884.56;;;9.42;64.38
40992;BME280;29633;49.168;9.848;2023-04-26T04:39:05;96883.13;;;9.38;64.60
40992;BME280;29633;49.168;9.848;2023-04-26T04:41:36;96894.31;;;9.38;64.65
40992;BME280;29633;49.168;9.848;2023-04-26T04:44:02;96890.78;;;9.39;64.34
40992;BME280;29633;49.168;9.848;2023-04-26T04:46:28;96896.78;;;9.40;64.47
40992;BME280;29633;49.168;9.848;2023-04-26T04:48:54;96892.53;;;9.39;64.57
40992;BME280;29633;49.168;9.848;2023-04-26T04:51:19;96902.06;;;9.38;64.32
40992;BME280;29633;49.168;9.848;2023-04-26T04:53:45;96906.41;;;9.38;64.50
40992;BME280;29633;49.168;9.848;2023-04-26T04:56:11;96897.94;;;9.36;64.71
40992;BME280;29633;49.168;9.848;2023-04-26T04:58:37;96902.41;;;9.34;64.78
40992;BME280;29633;49.168;9.848;2023-04-26T05:01:02;96901.56;;;9.33;64.76
40992;BME280;29633;49.168;9.848;2023-04-26T05:03:28;96904.88;;;9.35;64.69
40992;BME280;29633;49.168;9.848;2023-04-26T05:05:54;96901.38;;;9.36;64.61
40992;BME280;29633;49.168;9.848;2023-04-26T05:08:19;96896.06;;;9.38;64.77
40992;BME280;29633;49.168;9.848;2023-04-26T05:10:45;96907.25;;;9.38;64.55
40992;BME280;29633;49.168;9.848;2023-04-26T05:13:11;96906.41;;;9.38;64.63
40992;BME280;29633;49.168;9.848;2023-04-26T05:15:37;96908.06;;;9.39;64.69
40992;BME280;29633;49.168;9.848;2023-04-26T05:18:02;96914.78;;;9.42;64.52
40992;BME280;29633;49.168;9.848;2023-04-26T05:20:28;96920.53;;;9.45;64.61
40992;BME280;29633;49.168;9.848;2023-04-26T05:22:54;96923.50;;;9.52;64.60
40992;BME280;29633;49.168;9.848;2023-04-26T05:25:19;96923.06;;;9.58;64.68
40992;BME280;29633;49.168;9.848;2023-04-26T05:27:45;96923.78;;;9.60;64.75
40992;BME280;29633;49.168;9.848;2023-04-26T05:30:11;96935.66;;;9.62;64.75
40992;BME280;29633;49.168;9.848;2023-04-26T05:32:37;96940.63;;;9.65;64.77
40992;BME280;29633;49.168;9.848;2023-04-26T05:35:03;96937.56;;;9.71;64.88
40992;BME280;29633;49.168;9.848;2023-04-26T05:37:29;96933.91;;;9.74;64.81
40992;BME280;29633;49.168;9.848;2023-04-26T05:39:56;96938.75;;;9.78;64.86
40992;BME280;29633;49.168;9.848;2023-04-26T05:42:21;96942.78;;;9.82;65.24
40992;BME280;29633;49.168;9.848;2023-04-26T05:44:47;96947.50;;;9.88;64.71
40992;BME280;29633;49.168;9.848;2023-04-26T05:47:12;96956.59;;;9.94;65.02
40992;BME280;29633;49.168;9.848;2023-04-26T05:49:38;96957.19;;;9.98;64.98
40992;BME280;29633;49.168;9.848;2023-04-26T05:52:04;96959.28;;;10.04;65.05
40992;BME280;29633;49.168;9.848;2023-04-26T05:54:30;96956.59;;;10.05;64.80
40992;BME280;29633;49.168;9.848;2023-04-26T05:56:55;96961.31;;;10.11;64.96
40992;BME280;29633;49.168;9.848;2023-04-26T05:59:21;96954.88;;;10.17;64.90
40992;BME280;29633;49.168;9.848;2023-04-26T06:01:46;96965.59;;;10.23;64.81
40992;BME280;29633;49.168;9.848;2023-04-26T06:04:12;96963.47;;;10.28;64.87
40992;BME280;29633;49.168;9.848;2023-04-26T06:06:38;96967.47;;;10.32;64.73
40992;BME280;29633;49.168;9.848;2023-04-26T06:09:03;96964.56;;;10.37;64.86
40992;BME280;29633;49.168;9.848;2023-04-26T06:11:29;96964.06;;;10.43;64.86
40992;BME280;29633;49.168;9.848;2023-04-26T06:13:55;96961.13;;;10.48;64.77
40992;BME280;29633;49.168;9.848;2023-04-26T06:16:21;96952.88;;;10.54;64.81
40992;BME280;29633;49.168;9.848;2023-04-26T06:18:49;96954.19;;;10.59;64.86
40992;BME280;29633;49.168;9.848;2023-04-26T06:21:15;96956.19;;;10.67;64.87
40992;BME280;29633;49.168;9.848;2023-04-26T06:23:41;96951.09;;;10.76;64.87
40992;BME280;29633;49.168;9.848;2023-04-26T06:26:06;96952.84;;;10.87;64.91
40992;BME280;29633;49.168;9.848;2023-04-26T06:28:32;96953.19;;;10.94;64.73
40992;BME280;29633;49.168;9.848;2023-04-26T06:30:58;96950.81;;;11.02;64.75
40992;BME280;29633;49.168;9.848;2023-04-26T06:33:23;96953.88;;;11.07;64.77
40992;BME280;29633;49.168;9.848;2023-04-26T06:35:51;96961.41;;;11.10;64.65
40992;BME280;29633;49.168;9.848;2023-04-26T06:38:17;96958.31;;;11.16;64.54
40992;BME280;29633;49.168;9.848;2023-04-26T06:40:42;96963.28;;;11.19;64.58
40992;BME280;29633;49.168;9.848;2023-04-26T06:43:08;96962.44;;;11.18;64.70
40992;BME280;29633;49.168;9.848;2023-04-26T06:45:33;96958.66;;;11.22;64.39
40992;BME280;29633;49.168;9.848;2023-04-26T06:47:59;96963.50;;;11.27;64.59
40992;BME280;29633;49.168;9.848;2023-04-26T06:50:26;96963.25;;;11.30;64.28
40992;BME280;29633;49.168;9.848;2023-04-26T06:52:52;96967.59;;;11.29;64.46
40992;BME280;29633;49.168;9.848;2023-04-26T06:55:17;96967.25;;;11.34;64.33
40992;BME280;29633;49.168;9.848;2023-04-26T06:57:43;96967.94;;;11.36;64.32
40992;BME280;29633;49.168;9.848;2023-04-26T07:00:09;96967.31;;;11.44;64.30
40992;BME280;29633;49.168;9.848;2023-04-26T07:02:35;96961.41;;;11.53;64.15
40992;BME280;29633;49.168;9.848;2023-04-26T07:05:00;96961.03;;;11.57;64.05
40992;BME280;29633;49.168;9.848;2023-04-26T07:07:26;96960.53;;;11.63;64.23
40992;BME280;29633;49.168;9.848;2023-04-26T07:09:52;96957.41;;;11.69;64.12
40992;BME280;29633;49.168;9.848;2023-04-26T07:12:18;96958.25;;;11.70;64.31
40992;BME280;29633;49.168;9.848;2023-04-26T07:14:43;96960.50;;;11.74;64.11
40992;BME280;29633;49.168;9.848;2023-04-26T07:17:09;96965.91;;;11.82;64.24
40992;BME280;29633;49.168;9.848;2023-04-26T07:19:35;96960.69;;;11.82;64.26
40992;BME280;29633;49.168;9.848;2023-04-26T07:22:01;96962.31;;;11.83;64.26
40992;BME280;29633;49.168;9.848;2023-04-26T07:24:27;96955.94;;;11.88;64.18
40992;BME280;29633;49.168;9.848;2023-04-26T07:26:52;96958.28;;;11.91;64.26
40992;BME280;29633;49.168;9.848;2023-04-26T07:29:18;96955.44;;;11.94;64.25
40992;BME280;29633;49.168;9.848;2023-04-26T07:31:44;96949.03;;;11.98;64.30
40992;BME280;29633;49.168;9.848;2023-04-26T07:34:10;96950.31;;;12.03;63.98
40992;BME280;29633;49.168;9.848;2023-04-26T07:36:35;96953.88;;;12.12;63.87
40992;BME280;29633;49.168;9.848;2023-04-26T07:39:01;96947.50;;;12.16;64.15
40992;BME280;29633;49.168;9.848;2023-04-26T07:41:29;96937.84;;;12.27;63.77
40992;BME280;29633;49.168;9.848;2023-04-26T07:43:55;96937.91;;;12.37;63.89
40992;BME280;29633;49.168;9.848;2023-04-26T07:46:21;96951.22;;;12.44;63.82
40992;BME280;29633;49.168;9.848;2023-04-26T07:48:46;96941.06;;;12.41;63.84
40992;BME280;29633;49.168;9.848;2023-04-26T07:51:12;96944.47;;;12.41;63.66
40992;BME280;29633;49.168;9.848;2023-04-26T07:53:38;96943.53;;;12.42;63.59
40992;BME280;29633;49.168;9.848;2023-04-26T07:56:05;96950.56;;;12.51;63.70
40992;BME280;29633;49.168;9.848;2023-04-26T07:58:32;96950.28;;;12.54;63.80
40992;BME280;29633;49.168;9.848;2023-04-26T08:00:59;96950.47;;;12.62;63.56
40992;BME280;29633;49.168;9.848;2023-04-26T08:03:25;96952.69;;;12.76;63.44
40992;BME280;29633;49.168;9.848;2023-04-26T08:05:52;96952.59;;;12.88;63.47
40992;BME280;29633;49.168;9.848;2023-04-26T08:08:18;96946.47;;;12.98;63.34
40992;BME280;29633;49.168;9.848;2023-04-26T08:10:44;96945.53;;;13.09;63.20
40992;BME280;29633;49.168;9.848;2023-04-26T08:13:10;96951.44;;;13.20;63.27
40992;BME280;29633;49.168;9.848;2023-04-26T08:15:36;96950.25;;;13.34;63.11
40992;BME280;29633;49.168;9.848;2023-04-26T08:18:01;96943.94;;;13.46;62.93
40992;BME280;29633;49.168;9.848;2023-04-26T08:20:27;96940.94;;;13.51;63.23
40992;BME280;29633;49.168;9.848;2023-04-26T08:22:56;96950.50;;;13.50;63.25
40992;BME280;29633;49.168;9.848;2023-04-26T08:25:22;96955.19;;;13.56;63.23
40992;BME280;29633;49.168;9.848;2023-04-26T08:27:48;96956.53;;;13.60;63.13
40992;BME280;29633;49.168;9.848;2023-04-26T08:30:14;96956.00;;;13.66;63.09
40992;BME280;29633;49.168;9.848;2023-04-26T08:32:40;96951.91;;;13.73;63.03
40992;BME280;29633;49.168;9.848;2023-04-26T08:35:06;96958.59;;;13.86;62.98
40992;BME280;29633;49.168;9.848;2023-04-26T08:37:31;96956.00;;;13.95;62.98
40992;BME280;29633;49.168;9.848;2023-04-26T08:39:57;96958.31;;;13.98;62.89
40992;BME280;29633;49.168;9.848;2023-04-26T08:42:27;96960.06;;;14.07;62.87
40992;BME280;29633;49.168;9.848;2023-04-26T08:44:53;96957.03;;;14.12;62.91
40992;BME280;29633;49.168;9.848;2023-04-26T08:47:24;96948.41;;;14.21;62.72
40992;BME280;29633;49.168;9.848;2023-04-26T08:49:53;96945.50;;;14.24;62.76
40992;BME280;29633;49.168;9.848;2023-04-26T08:52:28;96943.56;;;14.26;62.58
40992;BME280;29633;49.168;9.848;2023-04-26T08:54:53;96954.97;;;14.25;62.85
40992;BME280;29633;49.168;9.848;2023-04-26T08:57:21;96956.88;;;14.23;62.94
40992;BME280;29633;49.168;9.848;2023-04-26T08:59:46;96952.91;;;14.28;62.50
40992;BME280;29633;49.168;9.848;2023-04-26T09:02:16;96957.00;;;14.31;62.75
40992;BME280;29633;49.168;9.848;2023-04-26T09:04:44;96955.22;;;14.41;62.95
40992;BME280;29633;49.168;9.848;2023-04-26T09:07:10;96954.91;;;14.54;62.59
40992;BME280;29633;49.168;9.848;2023-04-26T09:09:40;96952.78;;;14.67;62.36
40992;BME280;29633;49.168;9.848;2023-04-26T09:12:06;96943.81;;;14.79;62.49
40992;BME280;29633;49.168;9.848;2023-04-26T09:14:32;96939.50;;;14.88;62.49
40992;BME280;29633;49.168;9.848;2023-04-26T09:16:58;96941.63;;;15.02;62.53
40992;BME280;29633;49.168;9.848;2023-04-26T09:19:40;96946.50;;;15.14;62.42
40992;BME280;29633;49.168;9.848;2023-04-26T09:22:09;96936.91;;;15.33;62.42
40992;BME280;29633;49.168;9.848;2023-04-26T09:24:48;96943.13;;;15.49;62.14
40992;BME280;29633;49.168;9.848;2023-04-26T09:27:15;96946.66;;;15.48;62.17
40992;BME280;29633;49.168;9.848;2023-04-26T09:30:31;96938.47;;;15.43;62.16
40992;BME280;29633;49.168;9.848;2023-04-26T09:35:26;96945.69;;;15.32;62.39
40992;BME280;29633;49.168;9.848;2023-04-26T09:40:32;96937.78;;;15.41;62.32
40992;BME280;29633;49.168;9.848;2023-04-26T09:45:31;96936.50;;;15.45;62.15
40992;BME280;29633;49.168;9.848;2023-04-26T09:48:27;96933.38;;;15.42;62.26
40992;BME280;29633;49.168;9.848;2023-04-26T09:50:57;96937.50;;;15.44;62.35
40992;BME280;29633;49.168;9.848;2023-04-26T09:53:33;96935.28;;;15.49;62.07
40992;BME280;29633;49.168;9.848;2023-04-26T09:56:07;96944.31;;;15.55;62.06
40992;BME280;29633;49.168;9.848;2023-04-26T09:58:40;96927.72;;;15.64;61.99
40992;BME280;29633;49.168;9.848;2023-04-26T10:01:22;96919.13;;;15.71;61.66
40992;BME280;29633;49.168;9.848;2023-04-26T10:03:48;96921.13;;;15.77;61.55
40992;BME280;29633;49.168;9.848;2023-04-26T10:06:14;96919.22;;;15.80;61.52
40992;BME280;29633;49.168;9.848;2023-04-26T10:08:40;96917.72;;;15.77;61.49
40992;BME280;29633;49.168;9.848;2023-04-26T10:11:06;96915.47;;;15.82;61.48
40992;BME280;29633;49.168;9.848;2023-04-26T10:13:36;96918.16;;;15.90;61.32
40992;BME280;29633;49.168;9.848;2023-04-26T10:16:02;96917.69;;;15.95;61.34
40992;BME280;29633;49.168;9.848;2023-04-26T10:18:30;96910.38;;;15.98;61.10
40992;BME280;29633;49.168;9.848;2023-04-26T10:21:05;96915.50;;;16.08;61.16
40992;BME280;29633;49.168;9.848;2023-04-26T10:23:31;96911.59;;;16.12;61.01
40992;BME280;29633;49.168;9.848;2023-04-26T10:25:57;96914.84;;;16.14;61.06
40992;BME280;29633;49.168;9.848;2023-04-26T10:31:04;96909.69;;;16.22;61.06
40992;BME280;29633;49.168;9.848;2023-04-26T10:33:33;96904.81;;;16.27;61.03
40992;BME280;29633;49.168;9.848;2023-04-26T10:36:02;96915.28;;;16.27;61.31
40992;BME280;29633;49.168;9.848;2023-04-26T10:38:29;96914.16;;;16.30;61.11
40992;BME280;29633;49.168;9.848;2023-04-26T10:40:55;96912.50;;;16.29;60.90
40992;BME280;29633;49.168;9.848;2023-04-26T10:43:40;96916.13;;;16.28;61.15
40992;BME280;29633;49.168;9.848;2023-04-26T10:46:38;96920.03;;;16.32;60.93
40992;BME280;29633;49.168;9.848;2023-04-26T10:49:18;96907.78;;;16.32;60.73
40992;BME280;29633;49.168;9.848;2023-04-26T10:52:23;96919.38;;;16.30;60.75
40992;BME280;29633;49.168;9.848;2023-04-26T10:54:53;96912.19;;;16.32;60.67
40992;BME280;29633;49.168;9.848;2023-04-26T10:57:19;96903.81;;;16.28;60.71
40992;BME280;29633;49.168;9.848;2023-04-26T11:05:32;96896.22;;;16.43;60.38
40992;BME280;29633;49.168;9.848;2023-04-26T11:08:08;96897.09;;;16.51;60.28
40992;BME280;29633;49.168;9.848;2023-04-26T11:10:39;96902.81;;;16.55;60.30
40992;BME280;29633;49.168;9.848;2023-04-26T11:13:06;96890.72;;;16.54;60.18
40992;BME280;29633;49.168;9.848;2023-04-26T11:15:32;96891.84;;;16.51;60.16
40992;BME280;29633;49.168;9.848;2023-04-26T11:18:01;96894.47;;;16.51;60.22
40992;BME280;29633;49.168;9.848;2023-04-26T11:20:33;96891.09;;;16.59;60.19
40992;BME280;29633;49.168;9.848;2023-04-26T11:22:59;96880.34;;;16.70;59.87
40992;BME280;29633;49.168;9.848;2023-04-26T11:25:28;96876.13;;;16.77;59.89
40992;BME280;29633;49.168;9.848;2023-04-26T11:28:01;96877.16;;;16.92;59.92
40992;BME280;29633;49.168;9.848;2023-04-26T11:30:28;96873.38;;;16.95;59.71
40992;BME280;29633;49.168;9.848;2023-04-26T11:32:55;96876.03;;;17.03;59.65
40992;BME280;29633;49.168;9.848;2023-04-26T11:35:22;96868.19;;;17.11;59.76
40992;BME280;29633;49.168;9.848;2023-04-26T11:37:49;96865.75;;;17.17;59.71
40992;BME280;29633;49.168;9.848;2023-04-26T11:40:16;96864.25;;;17.23;59.69
40992;BME280;29633;49.168;9.848;2023-04-26T11:42:45;96861.19;;;17.36;59.39
40992;BME280;29633;49.168;9.848;2023-04-26T11:45:11;96859.03;;;17.47;59.64
40992;BME280;29633;49.168;9.848;2023-04-26T11:47:36;96858.41;;;17.53;59.45
40992;BME280;29633;49.168;9.848;2023-04-26T11:50:02;96851.06;;;17.57;59.61
40992;BME280;29633;49.168;9.848;2023-04-26T11:52:29;96857.13;;;17.57;59.48
40992;BME280;29633;49.168;9.848;2023-04-26T11:55:03;96849.25;;;17.57;59.62
40992;BME280;29633;49.168;9.848;2023-04-26T11:57:30;96852.97;;;17.55;59.49
40992;BME280;29633;49.168;9.848;2023-04-26T12:00:14;96848.53;;;17.47;59.73
40992;BME280;29633;49.168;9.848;2023-04-26T12:02:44;96839.72;;;17.48;59.35
40992;BME280;29633;49.168;9.848;2023-04-26T12:05:22;96840.53;;;17.49;59.55
40992;BME280;29633;49.168;9.848;2023-04-26T12:07:49;96848.72;;;17.46;59.57
40992;BME280;29633;49.168;9.848;2023-04-26T12:10:16;96848.06;;;17.44;59.64
40992;BME280;29633;49.168;9.848;2023-04-26T12:12:45;96851.34;;;17.46;59.45
40992;BME280;29633;49.168;9.848;2023-04-26T12:15:12;96846.25;;;17.52;59.26
40992;BME280;29633;49.168;9.848;2023-04-26T12:17:37;96842.66;;;17.53;59.30
40992;BME280;29633;49.168;9.848;2023-04-26T12:20:10;96849.03;;;17.51;59.37
40992;BME280;29633;49.168;9.848;2023-04-26T12:22:36;96846.59;;;17.49;59.24
40992;BME280;29633;49.168;9.848;2023-04-26T12:25:05;96846.41;;;17.51;59.28
40992;BME280;29633;49.168;9.848;2023-04-26T12:27:32;96840.38;;;17.50;59.12
40992;BME280;29633;49.168;9.848;2023-04-26T12:29:58;96850.38;;;17.47;59.23
40992;BME280;29633;49.168;9.848;2023-04-26T12:32:24;96848.41;;;17.49;58.96
40992;BME280;29633;49.168;9.848;2023-04-26T12:34:50;96849.56;;;17.54;58.98
40992;BME280;29633;49.168;9.848;2023-04-26T12:37:15;96844.47;;;17.53;59.05
40992;BME280;29633;49.168;9.848;2023-04-26T12:39:41;96835.44;;;17.47;59.00
40992;BME280;29633;49.168;9.848;2023-04-26T12:42:08;96834.47;;;17.40;59.08
40992;BME280;29633;49.168;9.848;2023-04-26T12:44:33;96826.94;;;17.37;59.05
40992;BME280;29633;49.168;9.848;2023-04-26T12:46:59;96834.78;;;17.37;58.86
40992;BME280;29633;49.168;9.848;2023-04-26T12:49:25;96833.31;;;17.35;59.03
40992;BME280;29633;49.168;9.848;2023-04-26T12:51:50;96833.50;;;17.41;58.89
40992;BME280;29633;49.168;9.848;2023-04-26T12:54:16;96834.66;;;17.47;58.82
40992;BME280;29633;49.168;9.848;2023-04-26T12:56:42;96835.00;;;17.60;58.63
40992;BME280;29633;49.168;9.848;2023-04-26T12:59:10;96836.13;;;17.65;58.76
40992;BME280;29633;49.168;9.848;2023-04-26T13:01:36;96836.59;;;17.77;58.63
40992;BME280;29633;49.168;9.848;2023-04-26T13:04:02;96838.59;;;17.83;58.62
40992;BME280;29633;49.168;9.848;2023-04-26T13:06:29;96824.47;;;17.84;58.40
40992;BME280;29633;49.168;9.848;2023-04-26T13:08:56;96828.72;;;17.85;58.33
40992;BME280;29633;49.168;9.848;2023-04-26T13:11:22;96824.94;;;17.96;58.32
40992;BME280;29633;49.168;9.848;2023-04-26T13:13:47;96820.97;;;18.08;58.19
40992;BME280;29633;49.168;9.848;2023-04-26T13:16:13;96826.38;;;18.14;58.38
40992;BME280;29633;49.168;9.848;2023-04-26T13:18:39;96823.25;;;18.19;58.46